Time;durP1;ratioP1;P1;durP2;ratioP2;P2;SDS_P1;SDS_P2;PMS_P1;PMS_P2;Temp;Humidity;BMP_temperature;BMP_pressure;BME280_temperature;BME280_humidity;BME280_pressure;Samples;Min_cycle;Max_cycle;Signal;HPM_P1;HPM_P2
2022/12/20 06:00:11;;;;;;;9.00;7.10;;;6.20;97.20;;;;;;1709078;28;20186;-69
2022/12/20 06:01:04;;;;;;;7.55;6.85;;;6.20;97.20;;;;;;1707232;28;20249;-72
2022/12/20 06:01:56;;;;;;;8.70;7.15;;;6.20;97.20;;;;;;1707009;28;20290;-69
2022/12/20 06:02:47;;;;;;;6.88;6.15;;;6.20;97.20;;;;;;1706941;28;20210;-69
2022/12/20 06:03:39;;;;;;;9.30;6.60;;;6.20;97.20;;;;;;1707060;28;20203;-70
2022/12/20 06:04:32;;;;;;;8.18;7.30;;;6.20;97.20;;;;;;1706905;28;20206;-69
2022/12/20 06:05:23;;;;;;;8.93;8.02;;;6.20;97.20;;;;;;1706944;28;20202;-70
2022/12/20 06:06:14;;;;;;;11.10;6.80;;;6.20;97.20;;;;;;1706981;28;20688;-70
2022/12/20 06:07:06;;;;;;;6.50;5.90;;;6.20;97.20;;;;;;1706045;28;20652;-69
2022/12/20 06:07:57;;;;;;;8.85;7.30;;;6.20;97.20;;;;;;1706973;28;20238;-69
2022/12/20 06:08:49;;;;;;;7.93;7.07;;;6.20;97.20;;;;;;1706903;28;20198;-69
2022/12/20 06:09:40;;;;;;;7.47;6.78;;;6.20;97.20;;;;;;1712347;28;20453;-69
2022/12/20 06:10:33;;;;;;;8.00;6.77;;;6.20;97.20;;;;;;1713755;28;20218;-70
2022/12/20 06:11:24;;;;;;;7.65;6.90;;;6.20;97.20;;;;;;1707673;28;20254;-69
2022/12/20 06:12:16;;;;;;;7.80;7.03;;;6.20;97.20;;;;;;1707200;28;20207;-70
2022/12/20 06:13:07;;;;;;;6.65;5.95;;;6.20;97.20;;;;;;1707096;28;20213;-70
2022/12/20 06:13:59;;;;;;;6.80;6.20;;;6.20;97.20;;;;;;1707232;28;20541;-70
2022/12/20 06:14:50;;;;;;;8.25;6.25;;;6.20;97.20;;;;;;1713443;28;20201;-70
2022/12/20 06:15:45;;;;;;;7.50;6.53;;;6.20;97.20;;;;;;1720331;28;20224;-70
2022/12/20 06:16:36;;;;;;;7.13;6.18;;;6.20;97.20;;;;;;1720631;28;20216;-69
2022/12/20 06:17:27;;;;;;;8.40;7.07;;;6.20;97.20;;;;;;1716936;28;20203;-70
2022/12/20 06:18:18;;;;;;;6.57;5.90;;;6.20;97.20;;;;;;1718588;28;20197;-69
2022/12/20 06:19:10;;;;;;;7.17;6.47;;;6.20;97.20;;;;;;1721869;28;20197;-69
2022/12/20 06:20:01;;;;;;;7.68;6.68;;;6.20;97.20;;;;;;1721918;28;20208;-69
2022/12/20 06:20:54;;;;;;;6.73;6.10;;;6.20;97.20;;;;;;1721801;28;20221;-69
2022/12/20 06:21:45;;;;;;;8.30;6.82;;;6.20;97.20;;;;;;1721777;28;20208;-69
2022/12/20 06:22:37;;;;;;;7.40;6.40;;;6.20;97.20;;;;;;1721744;28;20204;-69
2022/12/20 06:23:28;;;;;;;7.90;6.97;;;6.20;97.20;;;;;;1710119;28;20214;-69
2022/12/20 06:24:20;;;;;;;8.13;6.97;;;6.20;97.20;;;;;;1708601;28;20290;-69
2022/12/20 06:25:11;;;;;;;7.20;6.50;;;6.20;97.20;;;;;;1708441;28;20213;-70
2022/12/20 06:26:04;;;;;;;8.35;6.80;;;6.20;97.20;;;;;;1709391;28;20191;-69
2022/12/20 06:26:54;;;;;;;8.27;7.43;;;6.20;97.20;;;;;;1707583;28;20201;-69
2022/12/20 06:27:46;;;;;;;7.68;6.97;;;6.20;97.20;;;;;;1708307;28;20570;-70
2022/12/20 06:28:41;;;;;;;7.50;6.20;;;6.20;97.20;;;;;;1708465;28;20213;-69
2022/12/20 06:29:33;;;;;;;6.97;6.28;;;6.20;97.20;;;;;;1708292;28;20285;-70
2022/12/20 06:30:24;;;;;;;7.65;7.05;;;6.20;97.20;;;;;;1708324;28;20210;-69
2022/12/20 06:31:17;;;;;;;7.63;6.70;;;6.20;97.20;;;;;;1708556;28;20209;-70
2022/12/20 06:32:08;;;;;;;7.85;7.10;;;6.20;97.20;;;;;;1715319;28;20197;-70
2022/12/20 06:33:00;;;;;;;7.85;6.80;;;6.20;97.20;;;;;;1718150;28;20252;-70
2022/12/20 06:33:50;;;;;;;7.63;6.93;;;6.20;97.20;;;;;;1713546;28;20217;-70
2022/12/20 06:34:42;;;;;;;13.00;7.40;;;6.20;97.20;;;;;;1711796;28;20197;-70
2022/12/20 06:35:34;;;;;;;9.00;8.10;;;6.20;97.20;;;;;;1710536;28;20670;-70
2022/12/20 06:36:25;;;;;;;8.40;7.60;;;6.20;97.20;;;;;;1711132;28;20230;-70
2022/12/20 06:37:16;;;;;;;8.37;7.13;;;6.20;97.20;;;;;;1715954;28;20200;-70
2022/12/20 06:38:07;;;;;;;7.85;6.97;;;6.20;97.20;;;;;;1718523;28;20883;-70
2022/12/20 06:38:59;;;;;;;8.00;7.20;;;6.20;97.20;;;;;;1717262;28;20193;-70
2022/12/20 06:39:50;;;;;;;8.77;7.43;;;6.20;97.20;;;;;;1717637;28;20229;-69
2022/12/20 06:40:41;;;;;;;8.30;7.60;;;6.20;97.20;;;;;;1718443;28;20218;-70
2022/12/20 06:41:32;;;;;;;8.50;7.63;;;6.20;97.20;;;;;;1717634;28;20197;-69
2022/12/20 06:42:24;;;;;;;8.50;7.60;;;6.20;97.20;;;;;;1717170;28;20211;-70
2022/12/20 06:43:16;;;;;;;8.02;7.22;;;6.20;97.20;;;;;;1717277;28;20206;-70
2022/12/20 06:44:07;;;;;;;8.75;7.60;;;6.20;97.20;;;;;;1713129;28;20233;-70
2022/12/20 06:44:59;;;;;;;8.00;6.93;;;6.30;97.20;;;;;;1715107;28;20227;-70
2022/12/20 06:45:49;;;;;;;7.43;6.72;;;6.30;97.20;;;;;;1710660;28;20195;-69
2022/12/20 06:46:42;;;;;;;7.37;6.57;;;6.30;97.20;;;;;;1714725;28;20223;-70
2022/12/20 06:47:33;;;;;;;7.70;6.97;;;6.30;97.20;;;;;;1710893;28;20206;-70
2022/12/20 06:48:25;;;;;;;7.67;6.90;;;6.30;97.20;;;;;;1708266;29;20209;-70
2022/12/20 06:49:15;;;;;;;7.55;6.32;;;6.30;97.20;;;;;;1708300;29;20230;-70
2022/12/20 06:50:08;;;;;;;7.93;7.23;;;6.30;97.20;;;;;;1708201;29;20683;-70
2022/12/20 06:50:59;;;;;;;6.55;5.95;;;6.30;97.20;;;;;;1708176;28;20226;-70
2022/12/20 06:51:51;;;;;;;8.37;7.03;;;6.30;97.20;;;;;;1713647;28;20204;-69
2022/12/20 06:52:42;;;;;;;7.32;6.60;;;6.30;97.20;;;;;;1714935;28;20448;-69
2022/12/20 06:53:34;;;;;;;7.37;6.20;;;6.30;97.20;;;;;;1714713;28;20201;-70
2022/12/20 06:54:24;;;;;;;7.60;6.90;;;6.30;97.20;;;;;;1714831;28;20449;-70
2022/12/20 06:55:17;;;;;;;8.93;6.83;;;6.30;97.20;;;;;;1714814;28;20198;-70
2022/12/20 06:56:08;;;;;;;7.28;6.30;;;6.40;97.20;;;;;;1714820;28;20655;-70
2022/12/20 06:57:00;;;;;;;7.50;6.53;;;6.40;97.20;;;;;;1714098;28;20538;-69
2022/12/20 06:57:50;;;;;;;6.93;6.22;;;6.40;97.20;;;;;;1713638;28;20202;-71
2022/12/20 06:58:42;;;;;;;6.43;5.83;;;6.40;97.20;;;;;;1710083;28;20237;-70
2022/12/20 06:59:34;;;;;;;6.85;5.53;;;6.40;97.20;;;;;;1714318;28;20718;-70
2022/12/20 07:00:26;;;;;;;6.60;5.90;;;6.40;97.20;;;;;;1710130;28;20643;-69
2022/12/20 07:01:16;;;;;;;6.55;5.93;;;6.40;97.20;;;;;;1714646;28;20690;-70
2022/12/20 07:02:11;;;;;;;6.40;5.80;;;6.40;97.20;;;;;;1714793;28;20551;-70
2022/12/20 07:03:02;;;;;;;7.40;6.70;;;6.40;97.20;;;;;;1714603;28;20654;-70
2022/12/20 07:03:54;;;;;;;7.00;6.30;;;6.40;97.20;;;;;;1716390;28;20605;-69
2022/12/20 07:04:45;;;;;;;8.75;5.90;;;6.40;97.20;;;;;;1710792;28;21242;-70
2022/12/20 07:05:37;;;;;;;7.63;6.33;;;6.40;97.20;;;;;;1714815;28;20201;-70
2022/12/20 07:06:28;;;;;;;6.72;6.03;;;6.40;97.20;;;;;;1714778;28;20448;-70
2022/12/20 07:07:19;;;;;;;6.53;5.95;;;6.40;97.20;;;;;;1714117;28;20671;-70
2022/12/20 07:08:10;;;;;;;6.15;5.55;;;6.40;97.20;;;;;;1713670;28;20248;-69
2022/12/20 07:09:02;;;;;;;7.33;6.37;;;6.40;97.20;;;;;;1715060;28;20209;-69
2022/12/20 07:09:53;;;;;;;6.38;5.72;;;6.40;97.20;;;;;;1714024;28;20701;-69
2022/12/20 07:10:45;;;;;;;6.77;6.17;;;6.40;97.20;;;;;;1713637;28;20209;-70
2022/12/20 07:11:37;;;;;;;7.22;5.97;;;6.50;97.20;;;;;;1714133;28;20213;-71
2022/12/20 07:12:28;;;;;;;6.80;6.15;;;6.50;97.20;;;;;;1714005;28;20220;-70
2022/12/20 07:13:19;;;;;;;6.30;5.70;;;6.50;97.20;;;;;;1714002;28;20245;-70
2022/12/20 07:14:11;;;;;;;6.00;5.40;;;6.50;97.20;;;;;;1714004;28;20638;-70
2022/12/20 07:15:03;;;;;;;5.80;5.30;;;6.50;97.20;;;;;;1716644;28;20217;-69
2022/12/20 07:15:58;;;;;;;6.22;5.72;;;6.50;97.20;;;;;;1719608;28;20727;-70
2022/12/20 07:16:49;;;;;;;6.30;5.70;;;6.50;97.20;;;;;;1709001;28;20623;-69
2022/12/20 07:17:42;;;;;;;6.37;5.60;;;6.50;97.20;;;;;;1714615;28;20578;-69
2022/12/20 07:18:34;;;;;;;6.55;5.70;;;6.50;97.20;;;;;;1714432;28;20210;-70
2022/12/20 07:19:26;;;;;;;6.90;6.22;;;6.50;97.20;;;;;;1714061;28;20210;-70
2022/12/20 07:20:17;;;;;;;7.72;5.80;;;6.50;97.20;;;;;;1714197;28;20209;-69
2022/12/20 07:21:09;;;;;;;6.95;6.28;;;6.50;97.20;;;;;;1712378;28;20190;-69
2022/12/20 07:22:00;;;;;;;6.75;5.78;;;6.50;97.20;;;;;;1714106;28;20735;-69
2022/12/20 07:22:52;;;;;;;7.10;6.40;;;6.50;97.20;;;;;;1714079;28;20642;-69
2022/12/20 07:23:42;;;;;;;6.80;6.10;;;6.50;97.20;;;;;;1714114;28;20217;-69
2022/12/20 07:24:34;;;;;;;6.90;6.20;;;6.60;97.20;;;;;;1714051;28;20201;-69
2022/12/20 07:25:25;;;;;;;6.80;6.20;;;6.60;97.20;;;;;;1713724;28;20253;-69
2022/12/20 07:26:16;;;;;;;6.10;5.60;;;6.60;97.20;;;;;;1714239;28;20205;-69
2022/12/20 07:27:10;;;;;;;8.00;7.20;;;6.50;97.20;;;;;;1710578;28;20206;-70
2022/12/20 07:28:01;;;;;;;6.68;5.97;;;6.60;97.20;;;;;;1707510;28;20221;-69
2022/12/20 07:28:53;;;;;;;7.22;6.43;;;6.60;97.20;;;;;;1707507;28;20203;-69
2022/12/20 07:29:44;;;;;;;8.10;6.88;;;6.60;97.20;;;;;;1707365;29;20218;-73
2022/12/20 07:30:36;;;;;;;6.07;4.97;;;6.60;97.20;;;;;;1707506;28;20241;-69
2022/12/20 07:31:27;;;;;;;6.63;5.18;;;6.60;97.20;;;;;;1707568;29;20226;-69
2022/12/20 07:32:19;;;;;;;6.50;5.90;;;6.60;97.20;;;;;;1709749;28;20206;-69
2022/12/20 07:33:11;;;;;;;6.60;6.00;;;6.60;97.20;;;;;;1713893;28;20679;-70
2022/12/20 07:34:02;;;;;;;6.38;5.75;;;6.60;97.20;;;;;;1714169;28;20228;-70
2022/12/20 07:34:53;;;;;;;6.18;5.53;;;6.60;97.20;;;;;;1714133;28;20223;-69
2022/12/20 07:35:45;;;;;;;6.30;5.70;;;6.60;97.20;;;;;;1714060;28;20212;-69
2022/12/20 07:36:36;;;;;;;6.70;5.63;;;6.60;97.20;;;;;;1714529;28;20225;-69
2022/12/20 07:37:28;;;;;;;6.60;5.90;;;6.60;97.20;;;;;;1712188;28;20277;-69
2022/12/20 07:38:19;;;;;;;6.32;5.65;;;6.70;97.20;;;;;;1713784;28;20460;-69
2022/12/20 07:39:11;;;;;;;6.70;6.00;;;6.70;97.20;;;;;;1714155;28;20201;-69
2022/12/20 07:40:03;;;;;;;6.15;5.63;;;6.70;97.20;;;;;;1714510;28;20217;-69
2022/12/20 07:40:54;;;;;;;6.75;6.15;;;6.70;97.20;;;;;;1714565;28;20711;-69
2022/12/20 07:41:46;;;;;;;6.82;6.10;;;6.70;97.20;;;;;;1714615;28;20209;-69
2022/12/20 07:42:37;;;;;;;6.13;5.53;;;6.70;97.20;;;;;;1714609;28;20202;-69
2022/12/20 07:43:28;;;;;;;6.80;6.20;;;6.80;97.20;;;;;;1714533;28;20668;-69
2022/12/20 07:44:19;;;;;;;6.82;6.15;;;6.80;97.20;;;;;;1714573;28;20205;-69
2022/12/20 07:45:11;;;;;;;6.23;5.50;;;6.80;97.20;;;;;;1714436;28;20202;-69
2022/12/20 07:46:02;;;;;;;7.00;6.00;;;6.80;97.20;;;;;;1714440;28;20461;-69
2022/12/20 07:46:54;;;;;;;7.57;5.90;;;6.80;97.20;;;;;;1713672;28;20208;-69
2022/12/20 07:47:45;;;;;;;5.90;5.35;;;6.80;97.20;;;;;;1714532;28;20679;-69
2022/12/20 07:48:38;;;;;;;6.23;5.73;;;6.90;97.20;;;;;;1714675;28;20569;-69
2022/12/20 07:49:28;;;;;;;6.38;5.88;;;6.90;97.20;;;;;;1714421;28;20695;-69
2022/12/20 07:50:20;;;;;;;6.03;5.50;;;6.90;97.20;;;;;;1714496;28;20574;-69
2022/12/20 07:51:15;;;;;;;7.43;6.60;;;6.90;97.20;;;;;;1714492;28;20212;-70
2022/12/20 07:52:08;;;;;;;10.10;8.20;;;6.90;97.20;;;;;;1714400;28;20240;-69
2022/12/20 07:53:00;;;;;;;9.20;6.95;;;7.00;97.20;;;;;;1714491;28;20210;-69
2022/12/20 07:53:55;;;;;;;6.97;6.28;;;7.00;97.20;;;;;;1714367;28;20208;-69
2022/12/20 07:54:49;;;;;;;7.35;6.10;;;7.00;97.20;;;;;;1714394;28;20206;-69
2022/12/20 07:55:41;;;;;;;7.35;6.60;;;7.00;97.20;;;;;;1711175;28;20198;-69
2022/12/20 07:56:35;;;;;;;8.07;6.50;;;7.00;97.20;;;;;;1707707;28;20690;-69
2022/12/20 07:57:30;;;;;;;6.30;5.70;;;7.00;97.20;;;;;;1707065;28;20206;-69
2022/12/20 07:58:21;;;;;;;8.30;6.03;;;7.00;97.20;;;;;;1707894;28;20225;-69
2022/12/20 07:59:15;;;;;;;6.78;6.07;;;7.00;97.20;;;;;;1707854;28;20199;-69
2022/12/20 08:00:08;;;;;;;7.10;5.40;;;7.10;97.20;;;;;;1707762;28;20210;-69
2022/12/20 08:01:03;;;;;;;6.25;5.68;;;7.10;97.20;;;;;;1707686;28;20600;-69
2022/12/20 08:01:56;;;;;;;6.70;5.97;;;7.10;97.20;;;;;;1707851;28;20214;-69
2022/12/20 08:02:52;;;;;;;6.35;5.57;;;7.10;97.20;;;;;;1707796;28;20836;-69
2022/12/20 08:03:49;;;;;;;7.10;6.10;;;7.10;97.20;;;;;;1707800;28;20206;-69
2022/12/20 08:04:40;;;;;;;6.93;5.75;;;7.10;97.20;;;;;;1707847;28;20245;-69
2022/12/20 08:05:33;;;;;;;5.60;5.10;;;7.20;97.20;;;;;;1707717;28;20295;-69
2022/12/20 08:06:24;;;;;;;4.97;4.57;;;7.20;97.20;;;;;;1707838;28;20221;-69
2022/12/20 08:07:16;;;;;;;6.10;5.43;;;7.20;97.20;;;;;;1706897;28;20715;-69
2022/12/20 08:08:08;;;;;;;5.70;5.15;;;7.20;97.20;;;;;;1707786;28;21008;-69
2022/12/20 08:09:03;;;;;;;7.70;6.25;;;7.20;97.20;;;;;;1707873;28;20277;-69
2022/12/20 08:09:53;;;;;;;7.38;6.68;;;7.30;97.20;;;;;;1707699;28;20211;-69
2022/12/20 08:10:46;;;;;;;8.07;6.03;;;7.30;97.20;;;;;;1707703;28;20234;-69
2022/12/20 08:11:37;;;;;;;7.70;6.43;;;7.30;97.20;;;;;;1707759;28;20587;-69
2022/12/20 08:12:30;;;;;;;8.93;6.47;;;7.30;97.20;;;;;;1707771;28;20198;-69
2022/12/20 08:13:22;;;;;;;8.18;6.75;;;7.30;97.20;;;;;;1707800;28;20210;-69
2022/12/20 08:14:14;;;;;;;7.50;6.40;;;7.30;97.20;;;;;;1707766;28;20210;-69
2022/12/20 08:15:07;;;;;;;9.70;7.55;;;7.30;97.20;;;;;;1707724;28;20222;-69
2022/12/20 08:16:00;;;;;;;12.00;7.57;;;7.30;97.20;;;;;;1708688;28;20203;-69
2022/12/20 08:16:50;;;;;;;8.15;7.35;;;7.40;97.20;;;;;;1707889;28;20210;-69
2022/12/20 08:17:42;;;;;;;6.90;6.17;;;7.40;97.20;;;;;;1709075;28;20212;-70
2022/12/20 08:18:33;;;;;;;7.57;6.70;;;7.40;97.20;;;;;;1708939;28;20210;-69
2022/12/20 08:19:26;;;;;;;7.50;6.70;;;7.40;97.20;;;;;;1709025;28;20409;-69
2022/12/20 08:20:17;;;;;;;8.40;6.80;;;7.40;97.20;;;;;;1709055;28;20218;-69
2022/12/20 08:21:11;;;;;;;11.50;7.83;;;7.40;97.20;;;;;;1711823;28;20209;-69
2022/12/20 08:22:03;;;;;;;13.43;7.53;;;7.40;97.20;;;;;;1715913;28;20449;-69
2022/12/20 08:22:54;;;;;;;7.90;6.97;;;7.40;97.20;;;;;;1715612;28;20206;-70
2022/12/20 08:23:45;;;;;;;7.23;6.03;;;7.40;97.20;;;;;;1714826;28;20209;-69
2022/12/20 08:24:36;;;;;;;7.47;6.78;;;7.40;97.20;;;;;;1715112;28;20202;-69
2022/12/20 08:25:28;;;;;;;8.70;5.77;;;7.40;97.20;;;;;;1714752;28;20198;-69
2022/12/20 08:26:20;;;;;;;7.38;5.88;;;7.50;97.20;;;;;;1714961;28;20213;-69
2022/12/20 08:27:10;;;;;;;11.48;6.10;;;7.50;97.20;;;;;;1713620;28;20209;-69
2022/12/20 08:28:02;;;;;;;6.80;6.10;;;7.50;97.20;;;;;;1714346;28;20212;-69
2022/12/20 08:28:54;;;;;;;6.22;5.63;;;7.50;97.20;;;;;;1714126;28;20267;-69
2022/12/20 08:29:45;;;;;;;8.02;5.63;;;7.50;97.20;;;;;;1714383;28;20214;-69
2022/12/20 08:30:36;;;;;;;5.80;5.25;;;7.50;97.20;;;;;;1714116;28;20232;-69
2022/12/20 08:31:28;;;;;;;5.85;4.82;;;7.50;97.20;;;;;;1713878;28;20630;-69
2022/12/20 08:32:19;;;;;;;5.57;4.72;;;7.50;97.20;;;;;;1714268;28;20221;-69
2022/12/20 08:33:10;;;;;;;5.70;4.63;;;7.60;97.20;;;;;;1714061;28;20284;-69
2022/12/20 08:34:01;;;;;;;6.45;4.80;;;7.60;97.20;;;;;;1713801;28;20217;-69
2022/12/20 08:34:54;;;;;;;6.47;4.87;;;7.60;97.20;;;;;;1714019;28;20213;-69
2022/12/20 08:35:45;;;;;;;7.55;5.47;;;7.60;97.20;;;;;;1714156;28;20217;-69
2022/12/20 08:36:37;;;;;;;5.33;4.83;;;7.70;97.20;;;;;;1714103;28;20225;-69
2022/12/20 08:37:27;;;;;;;7.65;5.25;;;7.70;97.20;;;;;;1713289;28;20485;-69
2022/12/20 08:38:19;;;;;;;6.13;5.23;;;7.70;97.20;;;;;;1713987;28;20197;-69
2022/12/20 08:39:10;;;;;;;6.45;4.97;;;7.70;97.20;;;;;;1713212;28;20204;-69
2022/12/20 08:40:02;;;;;;;5.00;4.20;;;7.80;97.20;;;;;;1714272;28;20201;-69
2022/12/20 08:40:52;;;;;;;5.93;5.22;;;7.80;97.20;;;;;;1713837;28;20907;-69
2022/12/20 08:41:44;;;;;;;7.33;5.87;;;7.80;97.20;;;;;;1714212;28;20225;-69
2022/12/20 08:42:35;;;;;;;10.15;7.30;;;7.90;97.20;;;;;;1713889;28;20208;-69
2022/12/20 08:43:26;;;;;;;7.60;6.33;;;7.90;97.20;;;;;;1714180;28;20202;-69
2022/12/20 08:44:17;;;;;;;8.10;6.40;;;8.00;97.20;;;;;;1713844;28;20210;-70
2022/12/20 08:45:10;;;;;;;7.27;5.47;;;8.00;97.20;;;;;;1713716;28;20652;-70
2022/12/20 08:46:00;;;;;;;5.57;5.07;;;8.00;97.20;;;;;;1714175;28;20206;-69
2022/12/20 08:46:53;;;;;;;6.00;5.10;;;8.10;97.20;;;;;;1712894;28;20194;-70
2022/12/20 08:47:43;;;;;;;7.68;5.95;;;8.10;97.20;;;;;;1714068;28;20445;-70
2022/12/20 08:48:35;;;;;;;5.33;4.17;;;8.20;97.20;;;;;;1713677;28;20248;-69
2022/12/20 08:49:26;;;;;;;5.38;4.88;;;8.20;97.20;;;;;;1713816;28;20201;-69
2022/12/20 08:50:19;;;;;;;5.50;4.90;;;8.30;97.20;;;;;;1714113;28;20652;-70
2022/12/20 08:51:11;;;;;;;5.00;4.47;;;8.30;97.20;;;;;;1714129;28;20390;-70
2022/12/20 08:52:02;;;;;;;5.40;4.60;;;8.30;97.20;;;;;;1713803;28;20577;-70
2022/12/20 08:52:53;;;;;;;6.22;5.18;;;8.30;97.20;;;;;;1714021;28;20714;-70
2022/12/20 08:53:45;;;;;;;5.27;4.77;;;8.40;97.20;;;;;;1714152;28;20880;-69
2022/12/20 08:54:35;;;;;;;5.45;4.30;;;8.40;97.20;;;;;;1714175;28;20213;-70
2022/12/20 08:55:27;;;;;;;5.00;4.20;;;8.40;97.20;;;;;;1713760;28;20202;-69
2022/12/20 08:56:18;;;;;;;5.18;4.50;;;8.40;97.20;;;;;;1714048;28;20202;-69
2022/12/20 08:57:10;;;;;;;5.63;4.85;;;8.40;97.20;;;;;;1713078;28;20213;-70
2022/12/20 08:58:01;;;;;;;5.07;4.40;;;8.50;97.20;;;;;;1714109;28;20206;-69
2022/12/20 08:58:52;;;;;;;5.13;4.63;;;8.50;97.20;;;;;;1713725;28;20201;-69
2022/12/20 08:59:43;;;;;;;6.25;4.97;;;8.50;97.20;;;;;;1714185;28;20209;-70
2022/12/20 09:00:36;;;;;;;4.57;3.80;;;8.50;97.20;;;;;;1713942;28;20217;-70
2022/12/20 09:01:29;;;;;;;4.63;4.22;;;8.50;97.20;;;;;;1713859;28;20213;-70
2022/12/20 09:02:20;;;;;;;4.85;4.35;;;8.50;97.20;;;;;;1714130;28;20202;-69
2022/12/20 09:03:12;;;;;;;5.30;4.57;;;8.50;97.20;;;;;;1713548;28;20205;-70
2022/12/20 09:04:04;;;;;;;5.40;4.13;;;8.50;97.20;;;;;;1714031;28;20722;-69
2022/12/20 09:04:55;;;;;;;4.50;4.10;;;8.40;97.20;;;;;;1713802;28;20628;-70
2022/12/20 09:05:49;;;;;;;4.70;4.10;;;8.40;97.20;;;;;;1714089;28;20551;-70
2022/12/20 09:06:39;;;;;;;3.75;3.45;;;8.40;97.20;;;;;;1713804;28;20449;-70
2022/12/20 09:07:31;;;;;;;4.53;4.00;;;8.40;97.20;;;;;;1713145;28;20694;-70
2022/12/20 09:08:22;;;;;;;5.43;3.80;;;8.40;97.20;;;;;;1714001;28;20213;-70
2022/12/20 09:09:13;;;;;;;3.90;3.60;;;8.40;97.20;;;;;;1713792;28;20208;-70
2022/12/20 09:10:06;;;;;;;4.10;3.80;;;8.40;97.20;;;;;;1713942;28;20473;-70
2022/12/20 09:11:04;;;;;;;4.72;4.07;;;8.40;97.20;;;;;;1713820;28;20224;-70
2022/12/20 09:11:55;;;;;;;4.60;4.18;;;8.40;97.20;;;;;;1713649;28;20202;-70
2022/12/20 09:12:46;;;;;;;5.20;3.90;;;8.40;97.20;;;;;;1713931;28;20296;-70
2022/12/20 09:13:37;;;;;;;5.00;3.90;;;8.30;97.20;;;;;;1714028;28;20201;-70
2022/12/20 09:14:29;;;;;;;4.68;4.18;;;8.30;97.20;;;;;;1713794;28;20201;-69
2022/12/20 09:15:20;;;;;;;4.40;4.00;;;8.30;97.20;;;;;;1714035;28;20201;-70
2022/12/20 09:16:14;;;;;;;4.70;4.00;;;8.30;97.20;;;;;;1713294;28;20274;-70
2022/12/20 09:17:05;;;;;;;4.40;4.00;;;8.30;97.20;;;;;;1713089;28;20790;-70
2022/12/20 09:17:57;;;;;;;6.45;4.40;;;8.30;97.20;;;;;;1713578;28;20603;-70
2022/12/20 09:18:48;;;;;;;5.03;4.53;;;8.30;97.20;;;;;;1713753;28;20201;-70
2022/12/20 09:19:40;;;;;;;4.68;4.05;;;8.30;97.20;;;;;;1713571;28;20602;-70
2022/12/20 09:20:31;;;;;;;5.55;4.20;;;8.30;97.20;;;;;;1713802;28;20230;-70
2022/12/20 09:21:24;;;;;;;6.32;3.97;;;8.30;97.20;;;;;;1713938;28;20281;-70
2022/12/20 09:22:15;;;;;;;3.95;3.58;;;8.30;97.20;;;;;;1713729;28;20206;-69
2022/12/20 09:23:07;;;;;;;4.43;4.00;;;8.40;97.20;;;;;;1713904;28;20206;-69
2022/12/20 09:23:58;;;;;;;4.18;3.67;;;8.40;97.20;;;;;;1713925;28;20621;-69
2022/12/20 09:24:49;;;;;;;4.00;3.57;;;8.40;97.20;;;;;;1713537;28;20577;-70
2022/12/20 09:25:40;;;;;;;4.30;3.60;;;8.40;97.20;;;;;;1713926;28;20477;-69
2022/12/20 09:26:34;;;;;;;5.30;3.87;;;8.40;97.20;;;;;;1713872;28;20224;-69
2022/12/20 09:27:24;;;;;;;5.13;4.38;;;8.40;97.20;;;;;;1712815;28;20241;-70
2022/12/20 09:28:16;;;;;;;4.73;3.90;;;8.50;97.20;;;;;;1714053;28;20682;-70
2022/12/20 09:29:07;;;;;;;3.80;3.30;;;8.50;97.20;;;;;;1713962;28;20206;-70
2022/12/20 09:29:58;;;;;;;4.33;3.93;;;8.50;97.20;;;;;;1713940;28;20647;-70
2022/12/20 09:30:49;;;;;;;4.22;3.25;;;8.50;97.20;;;;;;1713706;28;20229;-70
2022/12/20 09:31:41;;;;;;;4.33;3.90;;;8.50;97.20;;;;;;1713643;28;20216;-70
2022/12/20 09:32:31;;;;;;;4.18;3.70;;;8.50;97.20;;;;;;1713506;28;20204;-70
2022/12/20 09:33:23;;;;;;;5.30;3.80;;;8.50;97.20;;;;;;1713824;28;20212;-69
2022/12/20 09:34:14;;;;;;;3.67;3.17;;;8.60;97.20;;;;;;1713614;28;20225;-70
2022/12/20 09:35:06;;;;;;;7.17;4.20;;;8.60;97.20;;;;;;1713890;28;20197;-69
2022/12/20 09:35:58;;;;;;;5.78;3.67;;;8.60;97.20;;;;;;1713831;28;20599;-69
2022/12/20 09:36:51;;;;;;;5.43;3.70;;;8.60;97.20;;;;;;1712794;28;20225;-70
2022/12/20 09:37:42;;;;;;;6.03;3.55;;;8.60;97.20;;;;;;1713804;28;20213;-69
2022/12/20 09:38:33;;;;;;;6.60;4.23;;;8.60;97.20;;;;;;1713763;28;20208;-70
2022/12/20 09:39:24;;;;;;;4.03;3.63;;;8.70;97.20;;;;;;1713195;28;20205;-70
2022/12/20 09:40:20;;;;;;;3.83;3.23;;;8.70;97.20;;;;;;1713576;28;20202;-70
2022/12/20 09:41:21;;;;;;;5.53;3.75;;;8.70;97.20;;;;;;1714008;28;20197;-69
2022/12/20 09:42:15;;;;;;;4.88;4.40;;;8.80;97.20;;;;;;1713653;28;20187;-70
2022/12/20 09:43:08;;;;;;;5.00;4.18;;;8.80;97.20;;;;;;1713837;28;20214;-70
2022/12/20 09:44:05;;;;;;;4.40;3.97;;;8.90;97.20;;;;;;1713695;28;21316;-70
2022/12/20 09:45:02;;;;;;;5.75;4.30;;;8.90;97.20;;;;;;1713754;28;20241;-70
2022/12/20 09:45:55;;;;;;;5.00;4.25;;;9.00;97.20;;;;;;1713647;28;20198;-70
2022/12/20 09:46:52;;;;;;;4.72;4.30;;;9.00;97.20;;;;;;1712463;28;20201;-70
2022/12/20 09:47:44;;;;;;;4.88;4.15;;;9.00;97.20;;;;;;1713646;28;20204;-70
2022/12/20 09:48:37;;;;;;;5.22;4.68;;;9.10;97.20;;;;;;1713773;28;20202;-70
2022/12/20 09:49:32;;;;;;;6.95;4.75;;;9.10;97.20;;;;;;1713765;28;20578;-70
2022/12/20 09:50:35;;;;;;;5.55;4.65;;;9.20;97.20;;;;;;1713254;28;20201;-70
2022/12/20 09:52:00;;;;;;;6.85;4.57;;;9.20;97.20;;;;;;1713575;28;20212;-69
2022/12/20 09:53:05;;;;;;;5.07;4.40;;;9.40;97.20;;;;;;1713544;28;20580;-70
2022/12/20 09:54:06;;;;;;;6.43;4.47;;;9.50;97.20;;;;;;1713857;28;20198;-70
2022/12/20 09:55:08;;;;;;;5.00;4.00;;;9.70;97.20;;;;;;1713423;28;20209;-70
2022/12/20 09:56:06;;;;;;;4.65;4.18;;;9.80;97.20;;;;;;1713822;28;20206;-70
2022/12/20 09:57:05;;;;;;;5.07;4.63;;;9.90;97.20;;;;;;1712610;28;20225;-70
2022/12/20 09:58:14;;;;;;;4.10;3.67;;;10.00;97.20;;;;;;1713832;28;20202;-70
2022/12/20 09:59:11;;;;;;;5.35;4.10;;;10.20;97.20;;;;;;1713751;28;20202;-69
2022/12/20 10:00:07;;;;;;;4.55;4.05;;;10.40;97.20;;;;;;1713830;28;20205;-69
2022/12/20 10:00:58;;;;;;;5.70;4.25;;;10.60;97.20;;;;;;1713456;28;20221;-70
2022/12/20 10:01:49;;;;;;;5.60;4.43;;;10.70;97.20;;;;;;1713590;28;20210;-69
2022/12/20 10:02:41;;;;;;;4.77;4.37;;;10.90;97.20;;;;;;1713471;28;20201;-70
2022/12/20 10:03:35;;;;;;;4.35;3.92;;;10.90;97.20;;;;;;1713616;28;20449;-70
2022/12/20 10:04:29;;;;;;;10.25;4.75;;;11.00;97.20;;;;;;1713742;28;20201;-70
2022/12/20 10:05:28;;;;;;;4.65;4.18;;;11.00;97.20;;;;;;1713471;28;20230;-70
2022/12/20 10:06:30;;;;;;;4.25;3.58;;;10.90;97.20;;;;;;1713787;28;20205;-70
2022/12/20 10:07:35;;;;;;;4.45;3.55;;;10.80;97.20;;;;;;1711553;28;20201;-70
2022/12/20 10:08:45;;;;;;;4.10;3.70;;;10.70;97.20;;;;;;1713672;28;20221;-70
2022/12/20 10:09:51;;;;;;;4.78;4.20;;;10.50;97.20;;;;;;1707298;28;20634;-70
2022/12/20 10:10:55;;;;;;;4.30;3.90;;;10.40;97.20;;;;;;1707072;28;20235;-70
2022/12/20 10:12:03;;;;;;;4.80;4.40;;;10.20;97.20;;;;;;1707098;29;20611;-70
2022/12/20 10:13:03;;;;;;;6.95;4.57;;;10.10;97.20;;;;;;1710000;28;20190;-70
2022/12/20 10:14:04;;;;;;;5.60;4.60;;;9.90;97.20;;;;;;1713692;28;20229;-70
2022/12/20 10:15:08;;;;;;;8.00;4.28;;;9.80;97.20;;;;;;1713850;28;20559;-69
2022/12/20 10:16:12;;;;;;;5.72;4.75;;;9.80;97.20;;;;;;1713762;28;20192;-69
2022/12/20 10:17:10;;;;;;;5.05;4.22;;;9.70;97.20;;;;;;1712490;28;20241;-70
2022/12/20 10:18:24;;;;;;;4.38;3.97;;;9.60;97.20;;;;;;1713529;28;20660;-70
2022/12/20 10:19:33;;;;;;;6.50;4.57;;;9.60;97.20;;;;;;1713375;28;20256;-70
2022/12/20 10:20:37;;;;;;;5.78;4.35;;;9.50;97.20;;;;;;1713573;28;20296;-70
2022/12/20 10:21:39;;;;;;;5.50;4.45;;;9.40;97.20;;;;;;1713329;28;20202;-70
2022/12/20 10:22:40;;;;;;;7.25;4.25;;;9.40;97.20;;;;;;1713429;28;20230;-70
2022/12/20 10:23:42;;;;;;;4.25;3.85;;;9.30;97.20;;;;;;1713590;28;20210;-70
2022/12/20 10:24:35;;;;;;;5.00;4.25;;;9.20;97.20;;;;;;1713583;28;20629;-69
2022/12/20 10:25:30;;;;;;;5.25;4.57;;;9.20;97.20;;;;;;1713288;28;20210;-70
2022/12/20 10:26:23;;;;;;;4.00;3.70;;;9.10;97.20;;;;;;1713705;28;20218;-70
2022/12/20 10:27:17;;;;;;;4.55;4.00;;;9.10;97.20;;;;;;1712702;28;20229;-70
2022/12/20 10:28:14;;;;;;;4.70;4.25;;;9.10;97.20;;;;;;1713616;28;20205;-70
2022/12/20 10:29:05;;;;;;;4.50;4.10;;;9.10;97.20;;;;;;1713420;28;20695;-70
2022/12/20 10:29:57;;;;;;;4.90;4.50;;;9.00;97.20;;;;;;1713628;28;20212;-70
2022/12/20 10:30:48;;;;;;;5.13;4.63;;;9.00;97.20;;;;;;1713365;28;20228;-70
2022/12/20 10:31:40;;;;;;;6.10;4.40;;;9.00;97.20;;;;;;1713591;28;20206;-69
2022/12/20 10:32:31;;;;;;;5.03;4.07;;;9.00;97.20;;;;;;1713356;28;20241;-70
2022/12/20 10:33:24;;;;;;;4.82;4.32;;;8.90;97.20;;;;;;1713342;28;20209;-70
2022/12/20 10:34:15;;;;;;;4.70;4.30;;;8.90;97.20;;;;;;1713650;28;20218;-70
2022/12/20 10:35:22;;;;;;;4.80;4.23;;;8.90;97.20;;;;;;1713674;28;20281;-70
2022/12/20 10:36:23;;;;;;;5.00;4.50;;;8.90;97.20;;;;;;1713653;28;20640;-70
2022/12/20 10:37:14;;;;;;;4.85;4.10;;;8.80;97.20;;;;;;1712554;28;20233;-70
2022/12/20 10:38:11;;;;;;;5.15;4.65;;;8.80;97.20;;;;;;1713706;28;20467;-70
2022/12/20 10:39:04;;;;;;;4.28;3.88;;;8.80;97.20;;;;;;1713402;28;20248;-70